CheckWX is a tool to help pilots better visualize weather data.  It is not intended as a substitute for an official pre-flight weather briefing.

02:50:36 UTC

KFWA METAR
Fort Wayne International Airport
Fort Wayne, Indiana, USA
Current

57 mins ago

KFWA 230154Z 19011KT 10SM FEW044 OVC150 24/16 A2989 RMK AO2 RAB25E46 SLP117 P0000 T02440161
Observed
Sep-23 @ 01:54 UTC
Wind
  • 190° at 11 KTS
Visibility
10 SM
Flight Rules
VFR
Cloud Levels
  • Few at 4,400' AGL
  • Overcast at 15,000' AGL
Temperature
24°C / 75°F
Dewpoint
16°C / 61°F
Humidity
61%
Altimeter
29.89" Hg
Pressure
1012.22 hPa
Current Rain
0.01"
Previous

2 hours ago

KFWA 230054Z 19011KT 10SM FEW070 SCT090 BKN170 26/16 A2990 RMK AO2 RAB40E52 SLP120 P0000 T02560156
Observed
Sep-23 @ 00:54 UTC
Wind
  • 190° at 11 KTS
Visibility
10 SM
Flight Rules
VFR
Cloud Levels
  • Few at 7,000' AGL
  • Scattered at 9,000' AGL
  • Broken at 17,000' AGL
Temperature
26°C / 79°F
Dewpoint
16°C / 61°F
Humidity
54%
Altimeter
29.9" Hg
Pressure
1012.52 hPa
Current Rain
0.01"
Previous

3 hours ago

KFWA 222354Z 19009KT 10SM FEW050 SCT085 BKN180 26/16 A2990 RMK AO2 SLP121 T02560161 10300 20256 56011
Observed
Sep-22 @ 23:54 UTC
Wind
  • 190° at 9 KTS
Visibility
10 SM
Flight Rules
VFR
Cloud Levels
  • Few at 5,000' AGL
  • Scattered at 8,500' AGL
  • Broken at 18,000' AGL
Temperature
26°C / 79°F
Dewpoint
16°C / 61°F
Humidity
54%
Altimeter
29.9" Hg
Pressure
1012.52 hPa